Aviation Digital Data Service (ADDS)

Output produced by METARs form (1632 UTC 16 June 2019)
found at http://www.aviationweather.gov/metar/data/
 
TAF TQPF 161100Z 1612/1712 10015KT 9999 SCT018 
     PROB30 
     TEMPO 1612/1616 SHRA